BKPR

Priština International Airport

Prishtina, Kosovo
TAF BKPR 170430Z 1705/1724 VRB03KT 0150 FZFG BKN003 BECMG 1708/1710 3000 BR SCT010 BECMG 1710/1712 9999 NSW
Issued Valid From Valid To
Jan-17 @ 04:30 UTC
(an hour ago)
Jan-17 @ 05:00 UTC
(35 minutes ago)
Jan-18 @ 00:00 UTC
(in 18 hours)
Jan-17 @ 05:00 to Jan-17 @ 08:00
TAF BKPR 170430Z 1705/1724 VRB03KT 0150 FZFG BKN003
Wind Visibility Clouds Conditions
Variable at 3 knots 145 meters
  • Broken at 300' AGL
  • Freezing
  • Fog
Becoming Jan-17 @ 08:00 to Jan-17 @ 10:00
BECMG 1708/1710 3000 BR SCT010
Wind Visibility Clouds Conditions
Variable at 3 knots 2,993 meters
  • Scattered at 1,000' AGL
  • Mist
Becoming Jan-17 @ 10:00 to Jan-18 @ 00:00
BECMG 1710/1712 9999 NSW
Wind Visibility Clouds Conditions
Variable at 3 knots 10,000+ meters
  • Scattered at 1,000' AGL
TAF BKPR 170430Z 1705/1724 VRB03KT 0150 FZFG BKN003 BECMG 1708/1710 3000 BR SCT010 BECMG 1710/1712 9999 NSW
Issued Jan-17 @ 04:30 UTC
(an hour ago)
Valid From Jan-17 @ 05:00 UTC
(35 minutes ago)
Valid To Jan-18 @ 00:00 UTC
(in 18 hours)
Jan-17 @ 05:00 - Jan-17 @ 08:00
Wind Visibility
Variable at 3 knots 145 meters
Clouds
  • Broken at 300' AGL
Conditions
  • Freezing
  • Fog
Becoming Jan-17 @ 08:00 - Jan-17 @ 10:00
Wind Visibility
Variable at 3 knots 2,993 meters
Clouds
  • Scattered at 1,000' AGL
Conditions
  • Mist
Becoming Jan-17 @ 10:00 - Jan-18 @ 00:00
Wind Visibility
Variable at 3 knots 10,000+ meters
Clouds
  • Scattered at 1,000' AGL
Conditions